Time;durP1;ratioP1;P1;durP2;ratioP2;P2;SDS_P1;SDS_P2;PMS_P1;PMS_P2;Temp;Humidity;BMP_temperature;BMP_pressure;BME280_temperature;BME280_humidity;BME280_pressure;Samples;Min_cycle;Max_cycle;Signal;HPM_P1;HPM_P2
2022/11/04 00:00:23;;;;;;;30.70;17.80;;;;;;;3.33;90.64;101425.16;107769;1269;62221;-70
2022/11/04 00:02:59;;;;;;;30.10;16.40;;;;;;;3.28;90.04;101421.69;107866;1255;61281;-72
2022/11/04 00:05:28;;;;;;;30.60;16.40;;;;;;;3.21;89.34;101421.05;107830;1264;71152;-71
2022/11/04 00:13:30;;;;;;;30.70;16.60;;;;;;;2.74;90.89;101404.54;107692;1270;62740;-70
2022/11/04 00:18:49;;;;;;;30.30;16.30;;;;;;;2.57;91.72;101392.99;107811;1264;57171;-71
2022/11/04 00:29:40;;;;;;;31.70;16.80;;;;;;;2.59;92.21;101380.04;107734;1263;74054;-70
2022/11/04 00:34:56;;;;;;;29.60;16.20;;;;;;;2.57;91.97;101372.71;107813;1263;57098;-70
2022/11/04 00:37:25;;;;;;;32.30;17.00;;;;;;;2.55;92.18;101368.30;107844;1260;72734;-71
2022/11/04 00:39:54;;;;;;;29.40;17.50;;;;;;;2.54;92.67;101365.41;107899;1261;70613;-71
2022/11/04 00:42:22;;;;;;;33.80;17.80;;;;;;;2.55;92.99;101365.89;107818;1253;70710;-72
2022/11/04 00:44:51;;;;;;;30.50;17.70;;;;;;;2.61;93.24;101362.96;107830;1256;63483;-71
2022/11/04 00:47:19;;;;;;;30.40;18.10;;;;;;;2.61;92.69;101359.70;107822;1257;61803;-71
2022/11/04 00:49:48;;;;;;;30.70;17.10;;;;;;;2.63;92.82;101361.71;107821;1266;57904;-71
2022/11/04 00:52:17;;;;;;;29.40;17.70;;;;;;;2.63;93.09;101357.75;107702;1269;72735;-72
2022/11/04 00:54:45;;;;;;;28.30;16.70;;;;;;;2.62;92.82;101354.34;107813;1255;72435;-73
2022/11/04 00:57:14;;;;;;;34.30;17.40;;;;;;;2.67;92.71;101349.55;107721;1270;68991;-73
2022/11/04 00:59:44;;;;;;;27.30;17.30;;;;;;;2.73;92.23;101353.65;107428;1259;71838;-70
2022/11/04 01:02:13;;;;;;;32.90;20.30;;;;;;;2.78;92.90;101352.48;107664;1263;61275;-71
2022/11/04 01:04:41;;;;;;;35.10;17.80;;;;;;;2.81;92.69;101352.23;107722;1260;59691;-70
2022/11/04 01:07:10;;;;;;;29.30;17.80;;;;;;;2.81;92.27;101347.93;107513;1265;62878;-71
2022/11/04 01:09:39;;;;;;;31.20;17.20;;;;;;;2.76;92.22;101342.39;107741;1257;71851;-71
2022/11/04 01:12:07;;;;;;;30.90;18.60;;;;;;;2.73;92.40;101340.61;107714;1260;70642;-70
2022/11/04 01:14:36;;;;;;;33.30;17.90;;;;;;;2.74;93.01;101337.48;107639;1269;62669;-72
2022/11/04 01:17:05;;;;;;;37.10;18.70;;;;;;;2.75;93.26;101337.79;107683;1262;60558;-70
2022/11/04 01:19:33;;;;;;;28.80;15.70;;;;;;;2.77;93.15;101332.55;107683;1260;61004;-69
2022/11/04 01:22:02;;;;;;;24.50;15.60;;;;;;;2.76;92.04;101330.19;107770;1263;63336;-71
2022/11/04 01:24:31;;;;;;;29.30;16.30;;;;;;;2.70;92.60;101327.44;107950;1265;61634;-70
2022/11/04 01:26:59;;;;;;;24.60;15.60;;;;;;;2.65;93.06;101330.86;107815;1263;70529;-70
2022/11/04 01:29:28;;;;;;;26.60;15.30;;;;;;;2.61;92.68;101324.45;107742;1268;72314;-71
2022/11/04 01:31:57;;;;;;;27.70;15.50;;;;;;;2.57;92.71;101321.65;107868;1260;62077;-71
2022/11/04 01:34:25;;;;;;;27.80;16.20;;;;;;;2.53;92.93;101321.91;107786;1256;57146;-72
2022/11/04 01:36:54;;;;;;;29.10;16.60;;;;;;;2.50;92.88;101317.03;107765;1263;62794;-71
2022/11/04 01:39:23;;;;;;;26.90;16.10;;;;;;;2.48;92.91;101320.52;107935;1255;71354;-70
2022/11/04 01:41:51;;;;;;;26.90;16.20;;;;;;;2.48;92.92;101317.61;107811;1258;59420;-71
2022/11/04 01:44:41;;;;;;;30.70;15.90;;;;;;;2.48;93.29;101321.55;107820;1250;63226;-70
2022/11/04 01:47:28;;;;;;;25.70;15.50;;;;;;;2.47;93.54;101316.77;107836;1256;57630;-70
2022/11/04 01:50:04;;;;;;;28.00;16.40;;;;;;;2.47;92.90;101311.09;107849;1262;57614;-71
2022/11/04 01:53:15;;;;;;;29.30;15.90;;;;;;;2.46;93.07;101306.86;107753;1260;73512;-70
2022/11/04 01:55:51;;;;;;;24.90;15.50;;;;;;;2.51;93.33;101304.63;107685;1263;71631;-71
2022/11/04 01:58:25;;;;;;;26.00;15.90;;;;;;;2.50;93.74;101304.83;107692;1263;58822;-71
2022/11/04 02:00:53;;;;;;;;;;;;;;;2.46;93.83;101302.02;107651;1260;64721;-72
2022/11/04 02:03:49;;;;;;;26.70;15.40;;;;;;;2.41;93.57;101297.69;107677;1260;57506;-71
2022/11/04 02:06:20;;;;;;;27.50;16.00;;;;;;;2.45;93.45;101300.67;107701;1260;57654;-70
2022/11/04 02:08:49;;;;;;;32.60;15.20;;;;;;;2.47;93.45;101303.02;107830;1263;71658;-70
2022/11/04 02:14:05;;;;;;;30.40;17.70;;;;;;;2.39;92.93;101304.80;107867;1260;69513;-70
2022/11/04 02:16:43;;;;;;;28.00;16.80;;;;;;;2.30;93.71;101306.77;107719;1266;73108;-71
2022/11/04 02:19:45;;;;;;;26.30;15.70;;;;;;;2.24;93.48;101310.73;107793;1263;62020;-71
2022/11/04 02:22:50;;;;;;;32.80;17.30;;;;;;;2.24;94.02;101310.88;107849;1258;60692;-70
2022/11/04 02:26:00;;;;;;;27.00;16.30;;;;;;;2.36;93.68;101318.30;107857;1263;63198;-70
2022/11/04 02:28:43;;;;;;;35.40;18.00;;;;;;;2.47;93.85;101320.91;108038;1257;60663;-71
2022/11/04 02:32:00;;;;;;;33.10;18.80;;;;;;;2.43;92.75;101319.98;107788;1263;59756;-71
2022/11/04 02:34:28;;;;;;;28.40;16.00;;;;;;;2.31;93.26;101323.74;107813;1260;73718;-69
2022/11/04 02:37:23;;;;;;;34.40;18.40;;;;;;;2.22;92.91;101319.90;107842;1263;57623;-70
2022/11/04 02:40:08;;;;;;;31.80;17.70;;;;;;;2.16;93.54;101316.97;107882;1261;60223;-69
2022/11/04 02:42:55;;;;;;;33.20;18.20;;;;;;;2.10;94.18;101318.52;107897;1263;74158;-69
2022/11/04 02:45:40;;;;;;;32.90;18.60;;;;;;;2.05;93.66;101320.70;107928;1250;72470;-70
2022/11/04 02:48:44;;;;;;;29.20;17.30;;;;;;;1.97;93.69;101318.17;107885;1263;69051;-71
2022/11/04 02:51:30;;;;;;;35.70;19.30;;;;;;;1.91;93.69;101311.30;107958;1263;74512;-71
2022/11/04 02:54:15;;;;;;;32.00;18.70;;;;;;;1.85;94.19;101308.70;107672;1269;60652;-70
2022/11/04 02:56:50;;;;;;;36.90;19.90;;;;;;;1.79;94.01;101305.59;107818;1262;57614;-70
2022/11/04 02:59:34;;;;;;;34.30;18.80;;;;;;;1.73;94.24;101296.66;107907;1259;63571;-71
2022/11/04 03:02:07;;;;;;;32.20;17.90;;;;;;;1.70;93.41;101294.83;107977;1269;72267;-71
2022/11/04 03:04:42;;;;;;;38.80;20.40;;;;;;;1.68;94.69;101296.60;107791;1265;68716;-70
2022/11/04 03:07:15;;;;;;;38.10;20.20;;;;;;;1.76;95.32;101291.76;107694;1267;71954;-69
2022/11/04 03:09:50;;;;;;;38.60;20.90;;;;;;;1.78;93.97;101287.76;107715;1263;60458;-69
2022/11/04 03:12:27;;;;;;;31.50;19.30;;;;;;;1.81;96.04;101291.29;107802;1260;58020;-70
2022/11/04 03:15:04;;;;;;;33.60;19.70;;;;;;;1.80;95.69;101292.34;107810;1255;71029;-70
2022/11/04 03:18:14;;;;;;;31.70;18.20;;;;;;;1.75;95.86;101291.46;107920;1261;70242;-69
2022/11/04 03:20:47;;;;;;;30.30;18.50;;;;;;;1.67;95.36;101280.68;107466;1254;69621;-68
2022/11/04 03:23:16;;;;;;;33.50;17.90;;;;;;;1.71;95.53;101277.66;107720;1256;71973;-69
2022/11/04 03:25:51;;;;;;;31.20;18.20;;;;;;;1.84;94.81;101272.66;107776;1269;57172;-70
2022/11/04 03:28:49;;;;;;;30.30;17.80;;;;;;;1.86;94.05;101263.33;107783;1260;61248;-70
2022/11/04 03:31:29;;;;;;;31.90;18.40;;;;;;;1.82;93.96;101261.20;107753;1263;62826;-70
2022/11/04 03:33:58;;;;;;;34.50;20.40;;;;;;;1.80;94.42;101264.70;107872;1256;72040;-70
2022/11/04 03:36:28;;;;;;;33.60;19.40;;;;;;;1.85;94.95;101265.42;107776;1259;70668;-70
2022/11/04 03:38:57;;;;;;;36.20;20.10;;;;;;;1.89;94.54;101263.76;107828;1263;73985;-70
2022/11/04 03:41:39;;;;;;;35.60;20.60;;;;;;;1.87;94.32;101258.83;107812;1264;62070;-69
2022/11/04 03:44:09;;;;;;;35.80;20.50;;;;;;;1.82;93.99;101253.98;107879;1260;57563;-71
2022/11/04 03:46:39;;;;;;;32.90;20.20;;;;;;;1.78;94.42;101250.65;107663;1261;72959;-70
2022/11/04 03:49:08;;;;;;;34.30;20.80;;;;;;;1.74;94.83;101245.63;107879;1261;71313;-71
2022/11/04 03:51:37;;;;;;;35.40;19.40;;;;;;;1.71;94.98;101246.23;107697;1263;68971;-70
2022/11/04 03:54:06;;;;;;;35.20;20.50;;;;;;;1.69;94.93;101249.19;107854;1260;73783;-70
2022/11/04 03:56:41;;;;;;;41.80;23.00;;;;;;;1.67;95.29;101246.83;107804;1260;59754;-69
2022/11/04 03:59:53;;;;;;;39.20;21.90;;;;;;;1.65;95.39;101247.42;107868;1267;61457;-70
2022/11/04 04:02:43;;;;;;;37.00;21.00;;;;;;;1.59;95.26;101246.21;107720;1260;63418;-70
2022/11/04 04:05:28;;;;;;;36.20;20.60;;;;;;;1.52;95.01;101245.70;107920;1261;61611;-71
2022/11/04 04:08:15;;;;;;;35.20;20.00;;;;;;;1.47;94.66;101249.77;107783;1269;68579;-69
2022/11/04 04:11:22;;;;;;;35.80;20.80;;;;;;;1.43;95.15;101245.07;107869;1263;72692;-71
2022/11/04 04:14:11;;;;;;;35.70;21.80;;;;;;;1.43;95.59;101244.38;107810;1260;60784;-70
2022/11/04 04:16:47;;;;;;;41.40;22.70;;;;;;;1.49;95.82;101246.99;107691;1256;59391;-70
2022/11/04 04:19:22;;;;;;;37.20;21.50;;;;;;;1.48;96.31;101248.22;107788;1255;62949;-72
2022/11/04 04:22:25;;;;;;;38.90;22.30;;;;;;;1.45;95.46;101250.50;107893;1260;61351;-73
2022/11/04 04:27:48;;;;;;;35.60;22.50;;;;;;;1.39;96.64;101247.08;107792;1260;71744;-72
2022/11/04 04:30:17;;;;;;;39.10;22.40;;;;;;;1.38;96.85;101247.96;107720;1260;60279;-70
2022/11/04 04:33:03;;;;;;;38.80;22.30;;;;;;;1.36;96.41;101241.83;107653;1269;58706;-70
2022/11/04 04:35:48;;;;;;;35.70;21.90;;;;;;;1.30;96.27;101236.33;107834;1259;73411;-71
2022/11/04 04:47:20;;;;;;;38.40;22.10;;;;;;;1.14;95.62;101232.95;107840;1259;61468;-72
2022/11/04 04:49:55;;;;;;;35.90;20.70;;;;;;;1.10;96.15;101234.25;107802;1260;59820;-71
2022/11/04 04:52:29;;;;;;;38.80;21.30;;;;;;;1.07;96.21;101234.50;107719;1265;73103;-71
2022/11/04 04:54:58;;;;;;;44.70;22.50;;;;;;;1.10;96.20;101236.14;107897;1258;69664;-83
2022/11/04 04:57:27;;;;;;;44.90;22.20;;;;;;;1.18;95.78;101237.98;107764;1260;68553;-80
2022/11/04 04:59:55;;;;;;;42.80;22.30;;;;;;;1.17;95.15;101237.33;107755;1260;72987;-72
2022/11/04 05:02:24;;;;;;;40.60;23.40;;;;;;;1.18;95.06;101235.42;107807;1263;60160;-73
2022/11/04 05:04:55;;;;;;;43.80;23.10;;;;;;;1.19;95.19;101235.91;107646;1260;59475;-74
2022/11/04 05:07:24;;;;;;;38.20;21.60;;;;;;;1.23;95.50;101236.33;107755;1263;73576;-73
2022/11/04 05:09:53;;;;;;;43.70;24.40;;;;;;;1.30;95.58;101242.67;107813;1266;70677;-74
2022/11/04 05:12:22;;;;;;;47.90;25.10;;;;;;;1.40;98.58;101246.86;107810;1263;68979;-81
2022/11/04 05:14:50;;;;;;;44.00;24.70;;;;;;;1.54;98.63;101247.01;107787;1264;72999;-76
2022/11/04 05:17:19;;;;;;;39.50;23.70;;;;;;;1.61;97.55;101247.87;107803;1270;60664;-76
2022/11/04 05:19:48;;;;;;;53.00;25.90;;;;;;;1.69;95.58;101248.52;107885;1263;60209;-76
2022/11/04 05:22:16;;;;;;;43.30;25.50;;;;;;;1.73;96.56;101244.46;107810;1270;72752;-76
2022/11/04 05:24:45;;;;;;;43.90;24.30;;;;;;;1.79;96.60;101246.84;108023;1255;70166;-83
2022/11/04 05:27:13;;;;;;;50.50;26.20;;;;;;;1.80;94.96;101244.08;107925;1255;69600;-80
2022/11/04 05:29:42;;;;;;;46.00;26.00;;;;;;;1.83;94.60;101240.23;107851;1263;72242;-82
2022/11/04 05:32:11;;;;;;;47.80;24.40;;;;;;;1.86;94.42;101240.65;107861;1258;61881;-78
2022/11/04 05:34:39;;;;;;;60.80;30.90;;;;;;;1.94;93.68;101244.73;107805;1269;61006;-80
2022/11/04 05:37:08;;;;;;;53.50;29.60;;;;;;;2.01;93.13;101243.86;107870;1255;71497;-81
2022/11/04 05:39:36;;;;;;;56.30;30.40;;;;;;;2.11;93.46;101241.83;107774;1258;71394;-82
2022/11/04 05:42:05;;;;;;;50.10;29.70;;;;;;;2.23;93.65;101244.58;107822;1260;68847;-81
2022/11/04 05:44:35;;;;;;;52.10;27.80;;;;;;;2.37;93.68;101246.39;107882;1263;72261;-79
2022/11/04 05:47:03;;;;;;;58.20;28.30;;;;;;;2.52;93.14;101245.98;107667;1260;61440;-81
2022/11/04 05:49:32;;;;;;;47.60;27.80;;;;;;;2.64;93.02;101245.94;107862;1260;59157;-80
2022/11/04 05:52:01;;;;;;;46.00;26.10;;;;;;;2.78;93.41;101245.33;107789;1269;61901;-80
2022/11/04 05:54:30;;;;;;;44.90;26.20;;;;;;;2.89;91.94;101247.04;107950;1260;72031;-80
2022/11/04 05:56:58;;;;;;;40.60;21.80;;;;;;;3.00;92.88;101242.20;107910;1256;60728;-81
2022/11/04 05:59:27;;;;;;;37.70;19.90;;;;;;;3.14;92.29;101245.02;107800;1260;62383;-79
2022/11/04 06:01:55;;;;;;;36.20;21.20;;;;;;;3.26;91.78;101246.19;107895;1258;61856;-80
2022/11/04 06:04:24;;;;;;;41.20;21.50;;;;;;;3.35;91.16;101248.10;107898;1267;61708;-81
2022/11/04 06:06:53;;;;;;;39.20;20.50;;;;;;;3.49;91.14;101245.92;107880;1259;71452;-81
2022/11/04 06:09:37;;;;;;;43.10;22.10;;;;;;;3.68;90.61;101247.33;107894;1260;70666;-81
2022/11/04 06:12:16;;;;;;;39.60;20.80;;;;;;;3.90;89.27;101250.48;107840;1260;60343;-80
2022/11/04 06:14:44;;;;;;;35.20;19.40;;;;;;;4.07;88.56;101252.98;107851;1259;73159;-83
2022/11/04 06:17:19;;;;;;;37.10;17.70;;;;;;;4.22;87.96;101253.98;107894;1256;57699;-81
2022/11/04 06:19:48;;;;;;;39.80;18.40;;;;;;;4.36;87.30;101252.05;107651;1263;61191;-81
2022/11/04 06:22:18;;;;;;;33.10;18.00;;;;;;;4.48;85.97;101248.83;107827;1267;74391;-80
2022/11/04 06:24:47;;;;;;;39.60;18.70;;;;;;;4.64;85.40;101252.55;108057;1258;71251;-80
2022/11/04 06:27:16;;;;;;;40.20;21.10;;;;;;;4.78;84.96;101250.92;107763;1259;68269;-81
2022/11/04 06:29:46;;;;;;;38.30;19.10;;;;;;;4.91;84.30;101246.80;107879;1260;73833;-80
2022/11/04 06:32:17;;;;;;;39.00;20.40;;;;;;;4.97;83.37;101238.98;107892;1264;57088;-80
2022/11/04 06:34:46;;;;;;;41.50;21.30;;;;;;;5.09;83.37;101233.14;107744;1260;61173;-79
2022/11/04 06:37:14;;;;;;;40.00;22.60;;;;;;;5.25;83.67;101233.69;107730;1263;63904;-81
2022/11/04 06:39:44;;;;;;;34.20;19.30;;;;;;;5.39;82.40;101229.10;108042;1258;60901;-81
2022/11/04 06:42:12;;;;;;;30.30;18.80;;;;;;;5.52;81.86;101219.93;107924;1260;69687;-81
2022/11/04 06:44:41;;;;;;;35.80;18.40;;;;;;;5.64;80.55;101215.92;107879;1260;63044;-80
2022/11/04 06:47:10;;;;;;;32.80;18.10;;;;;;;5.74;79.58;101211.53;107930;1260;57984;-81
2022/11/04 06:49:38;;;;;;;32.80;16.90;;;;;;;5.90;79.49;101212.36;107899;1260;59177;-79
2022/11/04 06:52:07;;;;;;;30.40;17.30;;;;;;;6.00;78.77;101206.09;107964;1259;62010;-82
2022/11/04 06:54:36;;;;;;;39.10;17.80;;;;;;;6.14;78.48;101202.66;107973;1261;71235;-83
2022/11/04 06:57:05;;;;;;;40.10;19.60;;;;;;;6.29;78.59;101195.56;107932;1263;71224;-83
2022/11/04 06:59:34;;;;;;;37.40;16.70;;;;;;;6.40;77.88;101192.13;107870;1263;62852;-80
2022/11/04 07:02:02;;;;;;;29.10;17.00;;;;;;;6.48;77.44;101187.39;107891;1269;61169;-81
2022/11/04 07:04:31;;;;;;;32.60;16.40;;;;;;;6.65;77.00;101181.73;107863;1260;59816;-80
2022/11/04 07:07:00;;;;;;;28.90;15.90;;;;;;;6.84;77.18;101184.43;107923;1263;63156;-80
2022/11/04 07:09:29;;;;;;;30.60;15.60;;;;;;;6.99;76.20;101181.12;108056;1264;60614;-81
2022/11/04 07:11:58;;;;;;;29.40;17.20;;;;;;;7.15;75.71;101178.21;107884;1269;70343;-80
2022/11/04 07:14:27;;;;;;;31.50;15.40;;;;;;;7.28;75.17;101177.42;107887;1263;63541;-79
2022/11/04 07:16:55;;;;;;;29.20;15.20;;;;;;;7.41;75.02;101172.39;107909;1261;61206;-77
2022/11/04 07:19:24;;;;;;;34.30;17.50;;;;;;;7.57;75.04;101167.74;108020;1254;57213;-82
2022/11/04 07:21:53;;;;;;;37.70;16.90;;;;;;;7.72;73.83;101163.30;107883;1258;73495;-79
2022/11/04 07:24:21;;;;;;;29.30;15.60;;;;;;;7.81;73.98;101161.10;107906;1255;72028;-79
2022/11/04 07:26:54;;;;;;;27.60;14.50;;;;;;;7.90;73.26;101159.08;107574;1263;324679;-82
2022/11/04 07:29:24;;;;;;;25.20;14.30;;;;;;;8.10;73.21;101153.80;107838;1269;73062;-82
2022/11/04 07:31:53;;;;;;;28.30;14.70;;;;;;;8.27;72.89;101153.35;107848;1256;60761;-81
2022/11/04 07:34:21;;;;;;;28.40;13.40;;;;;;;8.24;72.10;101153.88;107817;1263;60259;-78
2022/11/04 07:36:50;;;;;;;26.60;14.50;;;;;;;8.36;71.67;101152.53;107809;1263;62998;-81
2022/11/04 07:39:19;;;;;;;24.80;14.10;;;;;;;8.46;71.09;101147.17;107938;1265;70846;-78
2022/11/04 07:41:47;;;;;;;26.10;13.70;;;;;;;8.58;70.85;101140.52;107857;1264;68896;-80
2022/11/04 07:44:16;;;;;;;24.10;14.00;;;;;;;8.71;70.86;101134.77;107876;1254;63068;-80
2022/11/04 07:46:45;;;;;;;27.20;14.00;;;;;;;8.71;69.98;101130.40;107833;1267;61128;-80
2022/11/04 07:49:14;;;;;;;21.90;14.40;;;;;;;8.88;69.69;101124.27;107892;1267;57732;-79
2022/11/04 07:51:42;;;;;;;24.80;12.70;;;;;;;8.91;68.92;101118.67;107775;1265;72740;-81
2022/11/04 07:54:11;;;;;;;26.10;14.00;;;;;;;9.08;69.24;101118.02;107802;1261;61029;-80
2022/11/04 07:56:39;;;;;;;25.50;14.90;;;;;;;9.12;68.66;101121.21;107813;1256;70439;-80
2022/11/04 07:59:09;;;;;;;26.90;13.70;;;;;;;9.21;68.27;101119.84;107865;1258;62791;-80
2022/11/04 08:01:38;;;;;;;27.20;13.90;;;;;;;9.28;68.04;101118.51;107909;1264;57593;-80
2022/11/04 08:04:06;;;;;;;27.70;14.60;;;;;;;9.26;67.64;101118.83;107764;1263;61531;-79
2022/11/04 08:06:35;;;;;;;27.50;13.40;;;;;;;9.37;67.55;101120.24;107786;1263;63170;-81
2022/11/04 08:09:04;;;;;;;24.50;13.70;;;;;;;9.45;67.48;101121.00;107729;1260;62298;-81
2022/11/04 08:11:33;;;;;;;31.50;15.20;;;;;;;9.50;66.83;101117.86;107864;1256;59227;-80
2022/11/04 08:14:03;;;;;;;31.40;15.50;;;;;;;9.64;66.53;101116.67;107817;1268;73721;-82
2022/11/04 08:16:32;;;;;;;29.00;14.70;;;;;;;9.80;66.29;101111.81;107731;1258;61478;-81
2022/11/04 08:19:02;;;;;;;29.40;14.70;;;;;;;9.91;65.46;101103.85;107886;1259;62100;-80
2022/11/04 08:21:32;;;;;;;30.50;16.00;;;;;;;10.08;65.31;101102.41;107772;1266;73358;-79
2022/11/04 08:24:02;;;;;;;24.60;14.20;;;;;;;10.16;64.82;101102.77;108001;1258;61944;-81
2022/11/04 08:26:31;;;;;;;28.30;14.20;;;;;;;10.28;64.11;101091.44;107847;1263;59197;-82
2022/11/04 08:29:01;;;;;;;25.50;14.00;;;;;;;10.38;63.77;101086.46;107793;1260;62500;-78
2022/11/04 08:31:31;;;;;;;28.10;13.20;;;;;;;10.51;64.05;101082.46;107827;1263;60407;-82
2022/11/04 08:34:00;;;;;;;30.70;15.90;;;;;;;10.50;63.28;101087.38;107843;1267;60342;-78
2022/11/04 08:36:36;;;;;;;34.80;17.50;;;;;;;10.53;63.42;101088.73;107917;1263;61996;-83
2022/11/04 08:39:06;;;;;;;25.50;13.90;;;;;;;10.60;63.05;101089.15;107776;1264;62124;-79
2022/11/04 08:41:44;;;;;;;24.20;12.70;;;;;;;10.74;62.70;101087.66;107725;1260;70468;-81
2022/11/04 08:44:13;;;;;;;29.00;13.30;;;;;;;10.84;62.53;101080.04;107596;1265;73466;-75
2022/11/04 08:46:44;;;;;;;24.30;12.90;;;;;;;10.86;61.88;101080.08;107717;1263;61131;-74
2022/11/04 08:49:13;;;;;;;30.60;13.70;;;;;;;10.96;62.40;101074.35;107618;1261;57500;-74
2022/11/04 08:51:55;;;;;;;25.70;13.50;;;;;;;11.15;61.98;101069.23;107672;1259;62968;-75
2022/11/04 08:54:25;;;;;;;22.80;12.90;;;;;;;11.29;61.30;101068.21;107839;1270;72104;-74
2022/11/04 08:56:54;;;;;;;24.50;12.90;;;;;;;11.30;60.76;101059.40;107632;1264;70789;-74
2022/11/04 08:59:23;;;;;;;25.50;14.60;;;;;;;11.42;60.87;101056.67;107603;1261;74125;-74
2022/11/04 09:01:52;;;;;;;33.70;13.80;;;;;;;11.60;60.10;101054.23;107824;1251;57699;-73
2022/11/04 09:04:21;;;;;;;28.20;14.00;;;;;;;11.72;59.40;101052.98;107768;1257;57169;-73
2022/11/04 09:06:51;;;;;;;24.00;13.80;;;;;;;11.92;59.62;101044.63;107820;1260;72405;-73
2022/11/04 09:09:19;;;;;;;27.90;13.10;;;;;;;12.11;59.52;101036.42;107955;1258;72552;-73
2022/11/04 09:11:48;;;;;;;28.00;14.30;;;;;;;12.18;57.80;101027.34;107767;1268;58915;-72
2022/11/04 09:14:17;;;;;;;27.30;14.30;;;;;;;12.28;57.61;101027.48;107805;1259;73007;-74
2022/11/04 09:16:49;;;;;;;26.90;13.30;;;;;;;12.41;56.92;101021.25;107650;1260;61339;-73
2022/11/04 09:19:17;;;;;;;24.70;13.00;;;;;;;12.64;56.74;101011.98;107726;1267;58030;-74
2022/11/04 09:21:46;;;;;;;23.50;12.20;;;;;;;12.73;55.82;101007.58;107858;1263;72560;-74
2022/11/04 09:24:15;;;;;;;19.40;11.60;;;;;;;12.88;55.87;101000.90;107983;1258;70409;-74
2022/11/04 09:26:43;;;;;;;25.90;13.00;;;;;;;12.99;55.55;100996.70;107761;1264;70122;-74
2022/11/04 09:29:12;;;;;;;24.40;12.50;;;;;;;13.05;54.90;100983.98;107789;1261;63774;-74
2022/11/04 09:31:42;;;;;;;26.60;14.80;;;;;;;13.13;55.04;100972.73;107859;1263;60993;-74
2022/11/04 09:34:10;;;;;;;31.50;14.40;;;;;;;13.22;55.39;100970.27;107717;1261;61536;-73
2022/11/04 09:36:39;;;;;;;27.60;15.20;;;;;;;13.39;55.50;100966.97;107837;1271;62424;-73
2022/11/04 09:39:08;;;;;;;29.90;14.60;;;;;;;13.67;55.64;100960.20;108013;1263;71454;-73
2022/11/04 09:42:20;;;;;;;25.00;13.20;;;;;;;13.78;54.31;100952.11;107887;1267;69414;-74
2022/11/04 09:45:17;;;;;;;30.20;13.60;;;;;;;13.91;54.09;100944.91;107864;1260;64212;-74
2022/11/04 09:47:57;;;;;;;26.70;13.00;;;;;;;13.77;53.56;100938.52;107875;1264;58109;-74
2022/11/04 09:50:34;;;;;;;24.20;12.30;;;;;;;13.97;54.35;100927.63;107753;1265;61583;-74
2022/11/04 09:53:16;;;;;;;22.10;11.10;;;;;;;14.11;53.38;100922.77;107854;1264;63334;-75
2022/11/04 09:56:11;;;;;;;24.90;11.30;;;;;;;14.07;52.13;100923.27;107854;1261;61454;-75
2022/11/04 09:58:40;;;;;;;22.40;11.50;;;;;;;14.28;52.22;100918.70;107780;1271;69379;-76
2022/11/04 10:01:26;;;;;;;23.30;11.40;;;;;;;14.40;51.70;100919.81;107860;1260;73829;-74
2022/11/04 10:04:23;;;;;;;24.60;11.10;;;;;;;14.47;51.29;100917.27;107853;1265;57103;-75
2022/11/04 10:07:21;;;;;;;24.70;11.40;;;;;;;14.77;51.86;100909.55;107863;1260;60423;-74
2022/11/04 10:10:07;;;;;;;27.60;11.70;;;;;;;14.78;51.20;100905.79;107782;1269;62719;-73
2022/11/04 10:12:50;;;;;;;25.10;11.20;;;;;;;14.93;50.45;100894.15;107928;1251;62034;-74
2022/11/04 10:15:25;;;;;;;21.30;10.70;;;;;;;15.15;49.99;100899.42;107897;1263;59916;-74
2022/11/04 10:18:09;;;;;;;19.40;10.80;;;;;;;15.21;49.61;100887.61;107880;1266;73665;-74
2022/11/04 10:21:09;;;;;;;21.00;9.10;;;;;;;15.44;49.14;100881.38;107792;1261;61091;-74
2022/11/04 10:23:49;;;;;;;17.20;9.10;;;;;;;15.44;49.36;100870.88;107806;1260;60880;-76
2022/11/04 10:26:36;;;;;;;20.50;9.40;;;;;;;15.80;49.18;100865.86;107799;1264;63348;-74
2022/11/04 10:29:13;;;;;;;21.40;9.70;;;;;;;15.90;48.00;100859.48;107918;1259;62306;-75
2022/11/04 10:31:45;;;;;;;14.30;8.70;;;;;;;16.08;47.40;100854.60;107805;1269;58988;-75
2022/11/04 10:34:45;;;;;;;15.50;8.70;;;;;;;16.07;47.33;100850.52;107789;1263;64156;-75
2022/11/04 10:37:14;;;;;;;14.80;9.00;;;;;;;16.25;47.38;100848.12;107858;1263;57592;-74
2022/11/04 10:39:46;;;;;;;16.30;9.40;;;;;;;16.18;47.34;100848.78;107860;1264;61251;-76
2022/11/04 10:42:21;;;;;;;13.90;8.60;;;;;;;16.26;47.31;100845.61;107863;1267;62311;-74
2022/11/04 10:44:51;;;;;;;13.20;8.40;;;;;;;15.80;48.02;100841.61;107871;1261;62014;-69
2022/11/04 10:47:54;;;;;;;16.20;8.40;;;;;;;15.63;48.33;100848.62;107849;1264;70267;-78
2022/11/04 10:50:26;;;;;;;;;;;;;;;15.68;48.30;100848.50;107838;1271;62727;-74
2022/11/04 10:53:18;;;;;;;17.50;8.30;;;;;;;15.78;48.40;100843.16;107695;1267;57714;-74
2022/11/04 10:55:53;;;;;;;18.30;9.30;;;;;;;15.80;48.41;100835.70;107792;1261;57537;-76
2022/11/04 10:58:30;;;;;;;20.90;9.20;;;;;;;16.14;48.63;100836.92;107818;1260;73047;-74
2022/11/04 11:00:59;;;;;;;17.70;9.40;;;;;;;16.40;47.61;100834.92;107691;1260;72463;-73
2022/11/04 11:03:34;;;;;;;15.90;8.70;;;;;;;16.40;47.51;100831.98;107801;1267;69566;-74
2022/11/04 11:06:30;;;;;;;15.20;8.00;;;;;;;16.63;46.74;100831.02;107723;1269;73561;-73
2022/11/04 11:09:14;;;;;;;15.20;7.90;;;;;;;16.52;47.05;100824.79;107683;1272;60820;-75
2022/11/04 11:11:48;;;;;;;13.90;8.30;;;;;;;16.82;46.40;100826.66;107689;1266;60703;-74
2022/11/04 11:14:32;;;;;;;16.60;7.50;;;;;;;17.03;46.08;100827.87;107810;1267;74096;-74
2022/11/04 11:17:23;;;;;;;14.20;8.40;;;;;;;16.88;45.86;100830.23;107886;1259;72625;-73
2022/11/04 11:19:58;;;;;;;18.30;9.40;;;;;;;16.81;46.34;100822.77;107806;1272;69450;-75
2022/11/04 11:22:39;;;;;;;20.10;8.60;;;;;;;17.11;46.04;100824.92;107760;1263;63535;-75
2022/11/04 11:25:35;;;;;;;16.80;8.40;;;;;;;17.20;45.48;100822.60;107773;1270;57612;-74
2022/11/04 11:28:20;;;;;;;11.90;7.40;;;;;;;17.40;44.57;100817.33;107801;1272;57645;-75
2022/11/04 11:31:07;;;;;;;12.00;7.60;;;;;;;17.24;44.81;100807.28;107646;1266;73928;-74
2022/11/04 11:33:58;;;;;;;15.30;8.50;;;;;;;17.23;44.93;100806.65;107915;1257;72374;-72
2022/11/04 11:36:31;;;;;;;20.90;8.50;;;;;;;17.34;44.83;100806.85;107811;1267;70508;-74
2022/11/04 11:39:12;;;;;;;14.40;8.30;;;;;;;17.57;44.08;100803.52;107772;1266;62781;-74
2022/11/04 11:42:14;;;;;;;13.80;7.80;;;;;;;17.76;44.10;100800.48;107730;1269;57033;-75
2022/11/04 11:44:55;;;;;;;15.80;8.30;;;;;;;18.02;43.35;100793.28;107802;1266;57110;-74
2022/11/04 11:47:24;;;;;;;14.70;8.40;;;;;;;18.24;42.64;100787.64;107705;1260;62138;-74
2022/11/04 11:50:32;;;;;;;14.40;8.10;;;;;;;17.92;43.71;100782.55;107862;1258;71049;-73
2022/11/04 11:53:22;;;;;;;17.10;8.70;;;;;;;18.20;43.12;100779.06;107683;1270;61111;-74
2022/11/04 11:56:34;;;;;;;13.80;8.10;;;;;;;18.05;43.10;100776.54;107654;1269;63122;-74
2022/11/04 11:59:33;;;;;;;16.00;8.10;;;;;;;18.04;43.39;100768.11;107173;1277;60224;-73
2022/11/04 12:02:52;;;;;;;15.90;8.40;;;;;;;18.05;42.95;100762.66;107708;1267;60844;-74
2022/11/04 12:05:34;;;;;;;14.90;8.60;;;;;;;17.98;43.41;100753.52;107509;1264;73120;-74
2022/11/04 12:09:17;;;;;;;13.90;7.90;;;;;;;18.17;43.34;100751.05;107660;1272;61581;-74
2022/11/04 12:12:01;;;;;;;18.50;9.20;;;;;;;17.69;44.10;100749.83;107300;1264;69430;-74
2022/11/04 12:14:51;;;;;;;15.80;8.70;;;;;;;17.75;44.01;100743.34;107447;1272;62367;-73
2022/11/04 12:17:56;;;;;;;16.30;7.90;;;;;;;17.47;44.64;100739.84;107727;1261;60330;-76
2022/11/04 12:20:46;;;;;;;11.80;7.20;;;;;;;17.36;44.94;100735.84;107747;1265;57130;-74
2022/11/04 12:24:01;;;;;;;14.30;7.60;;;;;;;17.41;44.79;100736.41;107672;1263;73338;-76